Time;durP1;ratioP1;P1;durP2;ratioP2;P2;SDS_P1;SDS_P2;PMS_P1;PMS_P2;Temp;Humidity;BMP_temperature;BMP_pressure;BME280_temperature;BME280_humidity;BME280_pressure;Samples;Min_cycle;Max_cycle;Signal;HPM_P1;HPM_P2
2024/01/04 00:01:44;;;;;;;4.30;2.90;;;;;;;6.73;98.89;97513.06;215920;1263;141799;-75
2024/01/04 00:06:48;;;;;;;5.80;3.20;;;;;;;6.71;99.22;97514.44;215672;1268;141587;-75
2024/01/04 00:11:51;;;;;;;4.30;2.70;;;;;;;6.70;99.19;97514.13;215954;1267;138967;-75
2024/01/04 00:16:55;;;;;;;4.40;2.80;;;;;;;6.69;99.60;97510.20;215797;1267;140810;-73
2024/01/04 00:21:58;;;;;;;6.00;3.20;;;;;;;6.70;99.74;97504.86;215694;1265;140245;-72
2024/01/04 00:27:01;;;;;;;6.90;3.10;;;;;;;6.72;99.32;97501.30;215861;1267;140473;-75
2024/01/04 00:32:04;;;;;;;5.40;2.90;;;;;;;6.75;99.34;97503.77;215806;1267;140232;-74
2024/01/04 00:37:07;;;;;;;4.70;3.20;;;;;;;6.74;99.20;97498.13;215842;1264;139547;-73
2024/01/04 00:42:10;;;;;;;7.80;3.20;;;;;;;6.69;98.93;97501.58;216091;1266;139751;-74
2024/01/04 00:47:14;;;;;;;3.80;3.40;;;;;;;6.64;98.93;97504.06;216173;1268;140226;-75
2024/01/04 00:52:17;;;;;;;3.80;3.30;;;;;;;6.58;98.91;97502.40;215843;1267;140270;-75
2024/01/04 00:57:20;;;;;;;3.30;2.90;;;;;;;6.55;98.63;97503.77;215861;1267;141652;-75
2024/01/04 01:02:23;;;;;;;6.90;4.20;;;;;;;6.53;99.05;97505.14;215875;1268;139767;-74
2024/01/04 01:07:26;;;;;;;5.30;4.90;;;;;;;6.51;99.05;97503.82;215755;1267;140591;-74
2024/01/04 01:12:29;;;;;;;4.50;3.70;;;;;;;6.53;99.10;97499.85;216005;1267;141279;-74
2024/01/04 01:17:32;;;;;;;8.80;5.80;;;;;;;6.53;99.45;97489.48;215782;1268;141191;-74
2024/01/04 01:22:35;;;;;;;7.60;4.60;;;;;;;6.54;99.24;97485.13;217128;1267;139957;-74
2024/01/04 01:27:39;;;;;;;2.80;2.50;;;;;;;6.54;99.23;97485.71;215993;1264;139734;-76
2024/01/04 01:32:42;;;;;;;6.60;3.00;;;;;;;6.52;99.16;97486.67;216057;1265;140565;-73
2024/01/04 01:37:45;;;;;;;7.90;4.50;;;;;;;6.53;99.55;97489.95;216752;1267;139775;-73
2024/01/04 01:42:50;;;;;;;6.50;3.30;;;;;;;6.52;99.38;97488.30;215811;1267;139396;-72
2024/01/04 01:47:54;;;;;;;9.80;2.80;;;;;;;6.51;99.39;97484.39;215897;1268;140424;-73
2024/01/04 01:52:57;;;;;;;6.30;4.30;;;;;;;6.52;99.39;97481.52;215718;1267;140377;-74
2024/01/04 01:58:02;;;;;;;3.20;2.40;;;;;;;6.53;99.44;97482.02;216365;1264;140084;-72
2024/01/04 02:03:05;;;;;;;5.60;3.00;;;;;;;6.51;99.32;97486.45;216051;1268;141648;-72
2024/01/04 02:08:08;;;;;;;7.20;6.30;;;;;;;6.53;99.45;97492.92;215886;1267;139895;-73
2024/01/04 02:13:12;;;;;;;3.00;2.10;;;;;;;6.53;99.72;97499.74;215874;1264;139869;-74
2024/01/04 02:18:15;;;;;;;6.70;2.90;;;;;;;6.52;99.36;97498.48;216363;1267;140850;-73
2024/01/04 02:23:19;;;;;;;3.10;2.00;;;;;;;6.51;99.53;97495.09;218150;1264;139568;-74
2024/01/04 02:28:22;;;;;;;4.80;3.20;;;;;;;6.51;99.83;97492.55;218461;1264;139639;-76
2024/01/04 02:33:25;;;;;;;2.50;2.30;;;;;;;6.54;99.60;97492.55;216299;1264;141516;-75
2024/01/04 02:38:33;;;;;;;3.70;3.50;;;;;;;6.56;99.30;97491.76;215808;1268;140370;-74
2024/01/04 02:43:37;;;;;;;7.20;2.30;;;;;;;6.56;99.60;97489.43;215752;1268;139579;-74
2024/01/04 02:48:40;;;;;;;2.80;2.10;;;;;;;6.54;99.74;97487.78;215861;1268;139489;-75
2024/01/04 02:53:44;;;;;;;2.40;2.00;;;;;;;6.54;99.34;97487.63;216017;1269;139278;-74
2024/01/04 02:58:47;;;;;;;7.60;3.50;;;;;;;6.54;99.38;97485.93;215752;1265;141308;-76
2024/01/04 03:03:51;;;;;;;4.00;3.70;;;;;;;6.53;99.77;97480.52;215822;1264;139656;-77
2024/01/04 03:08:56;;;;;;;7.40;3.70;;;;;;;6.53;99.87;97471.05;215931;1264;140398;-77
2024/01/04 03:13:59;;;;;;;4.80;3.40;;;;;;;6.52;99.75;97462.11;216078;1267;140534;-77
2024/01/04 03:19:02;;;;;;;4.20;2.30;;;;;;;6.52;99.72;97461.37;215923;1264;139350;-79
2024/01/04 03:24:05;;;;;;;3.50;2.00;;;;;;;6.50;99.61;97462.84;215839;1269;139548;-79
2024/01/04 03:29:09;;;;;;;6.00;2.60;;;;;;;6.51;99.73;97458.98;215648;1268;140435;-77
2024/01/04 03:34:13;;;;;;;3.60;2.30;;;;;;;6.52;99.67;97456.77;215736;1269;140120;-79
2024/01/04 03:39:16;;;;;;;4.70;2.70;;;;;;;6.53;99.90;97456.45;215703;1267;141726;-77
2024/01/04 03:44:20;;;;;;;3.00;1.60;;;;;;;6.54;99.92;97450.89;215669;1264;140545;-78
2024/01/04 03:49:28;;;;;;;2.40;2.10;;;;;;;6.54;99.66;97447.08;215791;1264;140642;-77
2024/01/04 03:54:32;;;;;;;2.80;2.00;;;;;;;6.51;99.27;97448.29;215742;1264;140304;-77
2024/01/04 03:59:37;;;;;;;4.30;2.40;;;;;;;6.46;99.50;97447.02;216056;1266;139460;-75
2024/01/04 04:04:39;;;;;;;3.50;2.40;;;;;;;6.38;99.47;97445.60;216608;1266;140397;-75
2024/01/04 04:09:42;;;;;;;5.30;2.80;;;;;;;6.35;99.85;97446.17;215856;1267;139498;-76
2024/01/04 04:14:45;;;;;;;4.30;2.40;;;;;;;6.35;99.80;97445.12;215723;1264;140607;-77
2024/01/04 04:19:49;;;;;;;3.50;2.40;;;;;;;6.32;99.73;97449.40;216006;1266;139948;-76
2024/01/04 04:24:55;;;;;;;4.00;2.30;;;;;;;6.30;99.93;97443.98;215985;1264;140961;-75
2024/01/04 04:29:58;;;;;;;3.40;2.40;;;;;;;6.33;99.83;97447.50;215944;1264;140024;-78
2024/01/04 04:35:01;;;;;;;2.20;1.90;;;;;;;6.33;99.90;97445.91;216032;1268;140434;-77
2024/01/04 04:40:06;;;;;;;3.70;3.00;;;;;;;6.30;99.98;97446.11;215990;1268;140062;-77
2024/01/04 04:45:09;;;;;;;5.10;3.20;;;;;;;6.31;99.96;97448.91;216442;1264;140281;-74
2024/01/04 04:50:13;;;;;;;14.60;4.20;;;;;;;6.31;100.00;97446.75;215844;1265;140685;-73
2024/01/04 04:55:16;;;;;;;7.10;2.40;;;;;;;6.33;100.00;97448.55;215917;1267;140136;-74
2024/01/04 05:00:18;;;;;;;3.20;2.50;;;;;;;6.32;100.00;97449.82;216091;1267;140108;-74
2024/01/04 05:05:21;;;;;;;4.30;2.60;;;;;;;6.33;100.00;97450.94;216669;1264;140781;-72
2024/01/04 05:10:24;;;;;;;3.80;2.20;;;;;;;6.36;100.00;97450.15;215968;1263;140396;-73
2024/01/04 05:15:26;;;;;;;6.60;2.90;;;;;;;6.39;100.00;97450.25;216072;1263;140822;-74
2024/01/04 05:20:30;;;;;;;2.20;2.00;;;;;;;6.43;100.00;97447.70;215667;1265;139959;-75
2024/01/04 05:25:35;;;;;;;4.60;2.50;;;;;;;6.46;100.00;97448.28;215792;1264;140770;-76
2024/01/04 05:30:41;;;;;;;9.00;3.70;;;;;;;6.48;100.00;97447.54;215796;1267;140022;-75
2024/01/04 05:35:45;;;;;;;3.60;2.60;;;;;;;6.50;100.00;97452.67;216795;1264;141049;-76
2024/01/04 05:40:48;;;;;;;3.50;2.50;;;;;;;6.50;100.00;97457.29;215939;1267;140177;-73
2024/01/04 05:45:52;;;;;;;4.20;3.00;;;;;;;6.51;100.00;97465.65;216100;1264;140688;-73
2024/01/04 05:50:56;;;;;;;4.90;3.60;;;;;;;6.53;100.00;97469.36;215890;1264;140032;-76
2024/01/04 05:55:59;;;;;;;3.90;3.50;;;;;;;6.53;100.00;97478.79;215940;1265;141406;-74
2024/01/04 06:01:02;;;;;;;3.40;2.90;;;;;;;6.49;100.00;97482.96;215811;1264;139671;-75
2024/01/04 06:06:07;;;;;;;2.70;2.50;;;;;;;6.48;100.00;97486.82;216061;1264;139957;-78
2024/01/04 06:11:11;;;;;;;2.90;2.70;;;;;;;6.48;100.00;97486.18;215888;1264;140818;-78
2024/01/04 06:16:18;;;;;;;2.90;2.30;;;;;;;6.47;100.00;97487.92;218467;1264;140503;-78
2024/01/04 06:21:21;;;;;;;2.20;2.10;;;;;;;6.49;100.00;97492.05;219004;1263;140175;-78
2024/01/04 06:26:25;;;;;;;3.30;2.20;;;;;;;6.53;100.00;97492.49;216795;1264;140687;-78
2024/01/04 06:31:28;;;;;;;2.90;1.90;;;;;;;6.58;100.00;97499.12;218411;1263;141079;-79
2024/01/04 06:36:31;;;;;;;3.00;2.20;;;;;;;6.60;100.00;97498.59;215801;1264;140088;-75
2024/01/04 06:41:35;;;;;;;3.90;3.70;;;;;;;6.59;100.00;97507.34;215788;1264;141649;-75
2024/01/04 06:46:39;;;;;;;2.90;2.20;;;;;;;6.61;100.00;97511.77;217641;1264;141472;-73
2024/01/04 06:51:42;;;;;;;4.10;2.60;;;;;;;6.61;100.00;97508.77;216061;1264;140772;-74
2024/01/04 06:56:46;;;;;;;2.60;2.30;;;;;;;6.60;100.00;97510.14;215877;1264;140028;-76
2024/01/04 07:01:51;;;;;;;4.00;3.70;;;;;;;6.59;100.00;97514.37;215795;1264;141946;-75
2024/01/04 07:06:54;;;;;;;6.20;5.10;;;;;;;6.58;100.00;97513.89;215777;1264;141950;-74
2024/01/04 07:11:58;;;;;;;4.70;2.60;;;;;;;6.58;100.00;97512.89;215903;1267;139720;-76
2024/01/04 07:17:02;;;;;;;5.50;3.40;;;;;;;6.58;100.00;97512.84;216209;1267;139942;-74
2024/01/04 07:22:05;;;;;;;4.40;3.90;;;;;;;6.59;100.00;97512.99;215798;1267;139996;-75
2024/01/04 07:27:10;;;;;;;5.10;2.80;;;;;;;6.60;100.00;97517.87;215981;1267;139776;-75
2024/01/04 07:32:18;;;;;;;2.80;2.60;;;;;;;6.58;100.00;97514.31;215867;1264;139788;-74
2024/01/04 07:37:21;;;;;;;3.30;2.60;;;;;;;6.57;100.00;97516.86;215836;1264;139782;-73
2024/01/04 07:42:25;;;;;;;4.20;3.90;;;;;;;6.57;100.00;97515.11;215720;1264;139623;-75
2024/01/04 07:47:28;;;;;;;4.00;2.00;;;;;;;6.56;100.00;97513.67;219192;1264;140347;-79
2024/01/04 07:52:30;;;;;;;2.80;2.20;;;;;;;6.58;100.00;97510.45;216002;1264;139970;-75
2024/01/04 07:57:33;;;;;;;2.90;2.70;;;;;;;6.59;100.00;97517.97;215908;1267;140475;-74
2024/01/04 08:02:35;;;;;;;3.10;2.80;;;;;;;6.60;100.00;97514.59;216072;1266;139929;-75
2024/01/04 08:07:37;;;;;;;3.50;3.20;;;;;;;6.62;100.00;97519.56;216206;1267;139917;-73
2024/01/04 08:12:42;;;;;;;1.90;1.80;;;;;;;6.64;100.00;97520.63;216154;1264;139770;-74
2024/01/04 08:17:45;;;;;;;2.50;2.20;;;;;;;6.66;100.00;97525.02;216940;1264;140174;-77
2024/01/04 08:22:48;;;;;;;4.00;2.30;;;;;;;6.69;100.00;97529.91;217247;1263;141004;-74
2024/01/04 08:27:51;;;;;;;3.10;2.60;;;;;;;6.73;100.00;97531.64;216935;1264;140799;-82
2024/01/04 08:32:53;;;;;;;2.10;1.30;;;;;;;6.78;100.00;97532.38;215912;1268;141997;-78
2024/01/04 08:37:57;;;;;;;4.00;2.00;;;;;;;6.84;100.00;97529.11;216372;1265;139688;-74
2024/01/04 08:42:59;;;;;;;8.20;5.30;;;;;;;6.90;100.00;97533.89;216207;1267;139894;-72
2024/01/04 08:48:03;;;;;;;3.40;3.00;;;;;;;6.97;100.00;97529.45;216384;1265;140319;-75
2024/01/04 08:53:06;;;;;;;3.70;3.50;;;;;;;7.04;100.00;97532.23;216370;1263;139968;-75
2024/01/04 08:58:09;;;;;;;4.00;2.60;;;;;;;7.09;100.00;97533.92;216080;1265;140541;-75
2024/01/04 09:03:12;;;;;;;4.30;2.20;;;;;;;7.13;100.00;97542.73;216862;1264;140521;-73
2024/01/04 09:08:16;;;;;;;2.70;2.50;;;;;;;7.19;100.00;97545.11;216165;1265;141864;-72
2024/01/04 09:13:19;;;;;;;2.50;2.10;;;;;;;7.25;100.00;97551.10;216182;1264;140955;-77
2024/01/04 09:18:23;;;;;;;2.30;1.50;;;;;;;7.24;100.00;97553.23;216241;1264;140667;-77
2024/01/04 09:23:27;;;;;;;2.10;1.60;;;;;;;7.25;100.00;97557.94;216101;1264;139621;-76
2024/01/04 09:28:29;;;;;;;3.30;1.70;;;;;;;7.23;100.00;97556.52;216967;1264;140148;-77
2024/01/04 09:33:34;;;;;;;1.70;1.00;;;;;;;7.26;100.00;97561.65;216177;1263;139917;-77
2024/01/04 09:38:39;;;;;;;1.90;1.50;;;;;;;7.27;100.00;97564.35;216559;1263;139712;-77
2024/01/04 09:43:42;;;;;;;2.60;1.80;;;;;;;7.33;100.00;97565.13;216330;1265;139828;-80
2024/01/04 09:48:52;;;;;;;3.30;1.80;;;;;;;7.46;100.00;97567.02;216270;1264;140518;-81
2024/01/04 09:53:56;;;;;;;2.20;1.10;;;;;;;7.58;100.00;97567.39;216113;1267;140091;-82
2024/01/04 09:59:01;;;;;;;2.00;1.60;;;;;;;7.60;100.00;97564.63;217264;1264;139794;-81
2024/01/04 10:04:14;;;;;;;2.60;1.90;;;;;;;7.63;100.00;97567.65;217292;1264;140542;-80
2024/01/04 10:09:35;;;;;;;2.50;1.70;;;;;;;7.63;100.00;97569.92;216389;1267;139975;-78
2024/01/04 10:14:37;;;;;;;1.60;1.30;;;;;;;7.58;99.88;97572.00;216224;1267;141007;-79
2024/01/04 10:19:40;;;;;;;2.20;1.50;;;;;;;7.53;99.88;97573.97;216325;1264;141553;-80
2024/01/04 10:24:44;;;;;;;4.70;2.40;;;;;;;7.46;99.82;97571.48;216865;1264;139890;-73
2024/01/04 10:29:51;;;;;;;16.60;8.10;;;;;;;7.44;99.77;97574.45;216102;1264;470597;-71
2024/01/04 10:35:04;;;;;;;7.30;6.40;;;;;;;7.40;99.62;97576.77;216227;1264;140549;-78
2024/01/04 10:40:09;;;;;;;2.40;2.30;;;;;;;7.30;98.90;97586.81;216145;1267;139785;-74
2024/01/04 10:45:23;;;;;;;2.90;1.20;;;;;;;7.07;97.31;97601.91;216368;1264;139738;-76
2024/01/04 10:50:30;;;;;;;2.20;2.10;;;;;;;6.81;96.98;97597.21;216659;1267;140143;-80
2024/01/04 10:55:35;;;;;;;3.00;2.00;;;;;;;6.64;97.09;97599.09;218080;1264;139911;-78
2024/01/04 11:00:40;;;;;;;1.10;1.00;;;;;;;6.54;97.38;97595.45;216235;1267;141486;-81
2024/01/04 11:05:44;;;;;;;1.00;1.00;;;;;;;6.47;97.82;97598.13;216037;1267;149682;-79
2024/01/04 11:10:50;;;;;;;1.60;1.20;;;;;;;6.47;97.64;97593.42;215881;1264;139441;-79
2024/01/04 11:15:58;;;;;;;0.50;0.40;;;;;;;6.46;97.81;97591.09;216096;1263;140278;-79
2024/01/04 11:21:20;;;;;;;0.60;0.60;;;;;;;6.45;97.73;97587.23;215888;1264;140519;-79
2024/01/04 11:26:27;;;;;;;1.90;1.20;;;;;;;6.50;97.96;97579.61;216030;1264;140340;-78
2024/01/04 11:31:43;;;;;;;0.70;0.70;;;;;;;6.57;97.91;97576.52;216033;1265;141786;-79
2024/01/04 11:36:50;;;;;;;1.90;1.80;;;;;;;6.59;97.69;97575.30;215932;1264;139831;-76
2024/01/04 11:41:55;;;;;;;1.40;1.30;;;;;;;6.56;98.01;97572.23;215950;1264;140151;-78
2024/01/04 11:46:58;;;;;;;2.30;1.30;;;;;;;6.58;98.17;97573.39;215907;1267;140256;-79
2024/01/04 11:52:04;;;;;;;1.70;1.40;;;;;;;6.63;98.41;97569.60;216096;1265;139658;-78
2024/01/04 11:57:18;;;;;;;3.30;3.10;;;;;;;6.67;98.38;97571.41;215860;1264;139400;-78
2024/01/04 12:02:21;;;;;;;1.90;1.60;;;;;;;6.74;98.55;97569.86;215733;1264;150024;-79
2024/01/04 12:07:30;;;;;;;2.60;2.00;;;;;;;6.78;98.68;97575.12;215913;1264;140202;-77
2024/01/04 12:12:38;;;;;;;3.10;2.90;;;;;;;6.85;98.58;97575.88;216202;1265;141941;-76
2024/01/04 12:17:43;;;;;;;1.90;1.70;;;;;;;6.95;98.82;97569.38;215942;1262;140368;-77
2024/01/04 12:22:46;;;;;;;2.30;2.20;;;;;;;7.01;98.95;97572.03;215970;1264;139838;-76
2024/01/04 12:27:49;;;;;;;4.30;3.00;;;;;;;7.10;99.09;97576.10;215899;1265;139870;-79
2024/01/04 12:32:53;;;;;;;4.10;3.10;;;;;;;7.17;99.01;97580.88;216063;1265;139703;-78
2024/01/04 12:38:03;;;;;;;3.80;3.20;;;;;;;7.23;99.23;97579.77;216208;1267;139844;-78
2024/01/04 12:43:14;;;;;;;3.30;3.10;;;;;;;7.26;99.24;97581.20;216086;1267;139930;-79
2024/01/04 12:48:20;;;;;;;4.30;4.00;;;;;;;7.27;98.87;97576.70;215791;1267;139766;-78
2024/01/04 12:53:25;;;;;;;8.30;5.40;;;;;;;7.30;99.32;97586.83;215948;1265;139718;-77
2024/01/04 12:58:29;;;;;;;3.10;2.40;;;;;;;7.30;98.95;97589.73;215968;1264;140668;-80
2024/01/04 13:03:32;;;;;;;3.10;2.50;;;;;;;7.27;98.91;97590.21;215721;1267;140852;-78
2024/01/04 13:08:36;;;;;;;2.90;2.60;;;;;;;7.23;98.86;97590.27;215933;1267;140177;-79
2024/01/04 13:13:39;;;;;;;2.50;2.20;;;;;;;7.24;99.00;97588.79;215971;1267;139434;-78
2024/01/04 13:18:42;;;;;;;3.10;2.80;;;;;;;7.26;99.11;97579.98;215854;1265;140280;-77
2024/01/04 13:23:46;;;;;;;3.30;2.20;;;;;;;7.32;98.88;97579.52;216362;1264;139893;-78
2024/01/04 13:28:49;;;;;;;3.00;2.10;;;;;;;7.30;98.78;97576.76;215834;1263;140550;-78
2024/01/04 13:33:52;;;;;;;5.10;2.20;;;;;;;7.26;98.45;97572.30;216075;1264;140347;-78
2024/01/04 13:38:55;;;;;;;2.20;2.00;;;;;;;7.23;98.25;97574.79;216513;1264;139653;-78
2024/01/04 13:43:59;;;;;;;4.80;2.50;;;;;;;7.16;98.58;97584.38;216573;1267;140287;-79
2024/01/04 13:49:02;;;;;;;4.10;3.30;;;;;;;7.11;98.38;97590.30;216483;1264;139632;-79
2024/01/04 13:54:08;;;;;;;2.50;2.10;;;;;;;7.00;98.42;97612.61;216239;1264;139246;-80
2024/01/04 13:59:12;;;;;;;1.90;0.90;;;;;;;6.82;97.71;97615.60;216304;1264;139457;-78
2024/01/04 14:04:17;;;;;;;1.00;0.90;;;;;;;6.66;97.07;97635.59;216219;1264;140448;-80
2024/01/04 14:09:21;;;;;;;2.40;2.30;;;;;;;6.56;96.92;97645.27;215853;1264;140141;-81
2024/01/04 14:14:25;;;;;;;1.20;1.10;;;;;;;6.40;96.67;97650.30;215932;1267;140342;-79
2024/01/04 14:19:29;;;;;;;1.50;1.00;;;;;;;6.24;96.38;97650.18;215985;1267;139751;-77
2024/01/04 14:24:32;;;;;;;0.70;0.70;;;;;;;6.06;95.64;97650.52;216651;1264;139488;-80
2024/01/04 14:29:36;;;;;;;1.20;0.90;;;;;;;5.91;95.46;97652.95;216289;1264;139992;-78
2024/01/04 14:34:41;;;;;;;1.10;1.00;;;;;;;5.76;95.29;97650.89;215668;1267;139774;-78
2024/01/04 14:39:44;;;;;;;1.10;0.90;;;;;;;5.67;95.42;97651.13;216918;1267;140097;-77
2024/01/04 14:44:47;;;;;;;2.20;1.30;;;;;;;5.60;95.02;97654.46;216329;1265;139676;-77
2024/01/04 14:49:51;;;;;;;1.30;1.10;;;;;;;5.52;94.72;97653.56;215928;1267;140678;-78
2024/01/04 14:54:54;;;;;;;2.30;1.30;;;;;;;5.46;95.17;97664.67;215804;1264;140110;-77
2024/01/04 14:59:58;;;;;;;3.10;1.40;;;;;;;5.38;94.71;97679.34;215837;1267;141571;-78
2024/01/04 15:05:01;;;;;;;1.30;1.20;;;;;;;5.29;94.23;97692.10;215792;1265;140128;-78
2024/01/04 15:10:06;;;;;;;5.30;1.50;;;;;;;5.15;94.25;97715.85;215761;1265;139736;-80
2024/01/04 15:15:10;;;;;;;2.70;1.20;;;;;;;5.06;94.06;97730.38;216472;1265;140095;-77
2024/01/04 15:20:27;;;;;;;1.60;1.40;;;;;;;5.00;93.84;97734.38;215734;1267;140741;-78
2024/01/04 15:25:31;;;;;;;3.40;1.30;;;;;;;4.89;93.56;97741.39;215668;1264;140064;-76
2024/01/04 15:30:38;;;;;;;1.30;0.90;;;;;;;4.80;93.38;97745.83;215961;1265;140473;-76
2024/01/04 15:35:42;;;;;;;0.90;0.90;;;;;;;4.70;93.28;97748.39;215720;1267;139708;-79
2024/01/04 15:40:46;;;;;;;2.20;1.30;;;;;;;4.64;93.64;97751.27;215950;1267;139954;-79
2024/01/04 15:45:49;;;;;;;5.30;1.80;;;;;;;4.57;93.28;97758.61;216154;1264;140934;-77
2024/01/04 15:50:53;;;;;;;2.10;1.60;;;;;;;4.52;93.63;97761.20;216229;1265;140123;-77
2024/01/04 15:55:56;;;;;;;2.40;1.60;;;;;;;4.50;93.78;97762.86;215783;1267;139879;-77
2024/01/04 16:01:00;;;;;;;2.30;2.00;;;;;;;4.48;93.94;97765.20;216022;1265;141097;-77
2024/01/04 16:06:05;;;;;;;4.70;3.20;;;;;;;4.45;93.81;97769.13;216305;1265;139550;-79
2024/01/04 16:11:09;;;;;;;2.50;2.30;;;;;;;4.43;94.21;97768.45;215829;1265;140250;-72
2024/01/04 16:16:12;;;;;;;4.60;3.00;;;;;;;4.43;94.16;97767.30;216094;1265;139768;-74
2024/01/04 16:21:14;;;;;;;4.30;2.90;;;;;;;4.41;94.48;97779.30;215853;1267;139652;-78
2024/01/04 16:26:18;;;;;;;4.00;2.40;;;;;;;4.33;94.01;97788.00;215833;1265;140395;-78
2024/01/04 16:31:22;;;;;;;4.40;2.80;;;;;;;4.29;94.47;97805.02;215983;1265;139331;-76
2024/01/04 16:36:26;;;;;;;3.30;2.00;;;;;;;4.13;93.79;97812.65;216005;1266;141187;-75
2024/01/04 16:41:30;;;;;;;3.50;1.50;;;;;;;3.98;93.68;97818.31;215791;1264;139830;-73
2024/01/04 16:46:34;;;;;;;6.80;4.30;;;;;;;3.83;93.56;97826.44;216166;1265;140707;-72
2024/01/04 16:51:39;;;;;;;2.80;2.40;;;;;;;3.67;93.75;97845.51;215877;1264;141302;-73
2024/01/04 16:56:43;;;;;;;2.00;1.40;;;;;;;3.59;93.89;97863.16;215620;1265;140004;-74
2024/01/04 17:01:47;;;;;;;1.50;1.40;;;;;;;3.50;93.65;97874.85;215822;1264;140593;-73
2024/01/04 17:06:51;;;;;;;1.50;1.40;;;;;;;3.41;93.57;97874.87;215859;1265;142789;-73
2024/01/04 17:11:55;;;;;;;2.10;1.90;;;;;;;3.30;93.52;97881.90;216078;1267;140480;-73
2024/01/04 17:16:58;;;;;;;1.60;1.20;;;;;;;3.21;93.09;97880.87;215605;1264;141182;-74
2024/01/04 17:22:04;;;;;;;3.20;1.50;;;;;;;3.10;93.19;97891.73;216025;1267;140398;-74
2024/01/04 17:27:07;;;;;;;1.70;1.30;;;;;;;2.99;93.17;97898.80;217042;1267;140360;-74
2024/01/04 17:32:10;;;;;;;2.80;1.80;;;;;;;2.95;93.66;97906.14;216361;1268;141895;-74
2024/01/04 17:37:13;;;;;;;1.80;1.50;;;;;;;2.96;93.91;97913.98;216176;1265;141174;-74
2024/01/04 17:42:17;;;;;;;2.10;2.00;;;;;;;2.95;93.88;97916.27;216160;1266;139792;-74
2024/01/04 17:47:21;;;;;;;2.30;2.10;;;;;;;2.92;93.94;97919.16;215872;1267;140541;-73
2024/01/04 17:52:24;;;;;;;2.60;2.40;;;;;;;2.87;93.87;97924.10;215884;1265;141321;-72
2024/01/04 17:57:27;;;;;;;2.10;1.90;;;;;;;2.83;94.13;97932.06;216640;1265;139639;-73
2024/01/04 18:02:31;;;;;;;4.00;3.60;;;;;;;2.77;94.12;97941.50;216301;1267;140092;-72
2024/01/04 18:07:35;;;;;;;3.90;3.60;;;;;;;2.72;94.03;97946.39;218658;1265;139438;-73
2024/01/04 18:12:39;;;;;;;3.90;2.80;;;;;;;2.71;94.23;97957.38;216969;1265;140280;-73
2024/01/04 18:17:43;;;;;;;4.00;3.70;;;;;;;2.68;94.08;97963.77;215801;1267;139575;-73
2024/01/04 18:22:46;;;;;;;3.80;3.10;;;;;;;2.68;94.47;97972.24;216001;1265;139745;-72
2024/01/04 18:27:50;;;;;;;4.90;2.60;;;;;;;2.66;94.50;97984.04;216035;1265;141301;-74
2024/01/04 18:32:53;;;;;;;3.90;2.80;;;;;;;2.65;94.80;98003.27;216036;1265;139697;-73
2024/01/04 18:37:57;;;;;;;4.10;2.80;;;;;;;2.68;94.93;98010.40;215861;1267;141536;-72
2024/01/04 18:43:00;;;;;;;4.10;3.20;;;;;;;2.67;94.77;98022.79;216597;1265;139498;-77
2024/01/04 18:48:04;;;;;;;4.10;3.60;;;;;;;2.63;94.39;98028.45;215925;1264;141495;-73
2024/01/04 18:53:09;;;;;;;4.10;3.10;;;;;;;2.59;94.72;98039.88;215750;1267;140263;-73
2024/01/04 18:58:13;;;;;;;3.40;2.80;;;;;;;2.57;94.50;98046.83;216144;1267;140770;-73
2024/01/04 19:03:16;;;;;;;2.80;2.60;;;;;;;2.54;94.55;98051.11;215819;1267;141596;-73
2024/01/04 19:08:19;;;;;;;4.90;4.50;;;;;;;2.49;94.37;98064.77;215935;1266;140255;-73
2024/01/04 19:13:23;;;;;;;4.80;3.40;;;;;;;2.46;94.73;98065.84;216386;1265;139437;-74
2024/01/04 19:18:27;;;;;;;4.70;3.90;;;;;;;2.43;94.84;98078.92;215794;1268;139711;-73
2024/01/04 19:23:30;;;;;;;5.00;3.50;;;;;;;2.40;94.84;98093.67;217292;1267;140671;-74
2024/01/04 19:28:36;;;;;;;5.50;4.10;;;;;;;2.35;94.64;98102.59;216725;1264;140595;-74
2024/01/04 19:33:40;;;;;;;4.80;3.70;;;;;;;2.31;94.98;98109.27;215940;1265;139564;-72
2024/01/04 19:38:47;;;;;;;3.60;2.40;;;;;;;2.22;94.80;98123.89;217536;1267;141947;-73
2024/01/04 19:43:51;;;;;;;5.50;3.00;;;;;;;2.14;94.48;98142.59;215789;1266;141763;-75
2024/01/04 19:48:54;;;;;;;3.80;3.00;;;;;;;2.04;94.04;98167.02;215999;1267;142218;-74
2024/01/04 19:53:58;;;;;;;3.60;3.30;;;;;;;1.89;93.72;98181.59;217246;1264;140755;-75
2024/01/04 19:59:02;;;;;;;5.00;4.10;;;;;;;1.76;93.85;98205.36;215908;1267;140168;-74
2024/01/04 20:04:09;;;;;;;4.60;3.70;;;;;;;1.65;93.64;98233.90;217600;1267;139580;-73
2024/01/04 20:09:14;;;;;;;7.00;4.00;;;;;;;1.53;93.46;98243.52;215954;1267;140796;-73
2024/01/04 20:14:17;;;;;;;5.90;4.30;;;;;;;1.44;93.57;98261.60;216097;1267;140265;-73
2024/01/04 20:19:21;;;;;;;9.60;6.20;;;;;;;1.32;92.99;98270.42;216529;1264;139506;-73
2024/01/04 20:24:26;;;;;;;7.80;6.00;;;;;;;1.17;93.41;98287.09;216170;1268;139721;-73
2024/01/04 20:29:30;;;;;;;8.10;6.90;;;;;;;1.11;93.48;98308.27;215955;1267;140320;-73
2024/01/04 20:34:32;;;;;;;9.40;6.50;;;;;;;0.95;92.83;98330.48;215645;1268;141119;-72
2024/01/04 20:39:38;;;;;;;9.90;7.00;;;;;;;0.82;92.46;98348.50;216780;1267;139552;-73
2024/01/04 20:44:43;;;;;;;10.10;6.80;;;;;;;0.71;92.36;98369.98;215621;1267;140146;-73
2024/01/04 20:49:49;;;;;;;8.60;7.50;;;;;;;0.57;92.18;98392.83;215993;1264;139913;-72
2024/01/04 20:54:55;;;;;;;15.20;10.20;;;;;;;0.39;91.86;98407.80;215741;1264;140734;-71
2024/01/04 20:59:59;;;;;;;19.10;9.50;;;;;;;0.27;91.55;98428.30;216246;1265;139785;-72
2024/01/04 21:05:07;;;;;;;15.30;10.60;;;;;;;0.10;91.14;98435.59;215726;1267;142076;-71
2024/01/04 21:10:10;;;;;;;12.00;6.70;;;;;;;-0.06;90.85;98454.15;216542;1265;140159;-72
2024/01/04 21:15:13;;;;;;;12.90;7.20;;;;;;;-0.22;90.60;98477.48;215907;1267;141006;-74
2024/01/04 21:20:17;;;;;;;11.00;8.00;;;;;;;-0.32;90.66;98497.66;215852;1268;140436;-73
2024/01/04 21:25:19;;;;;;;9.70;5.90;;;;;;;-0.44;90.13;98515.98;215761;1269;140882;-72
2024/01/04 21:30:23;;;;;;;6.70;5.00;;;;;;;-0.57;89.64;98534.46;215901;1268;141172;-74
2024/01/04 21:35:29;;;;;;;6.30;5.10;;;;;;;-0.67;89.29;98547.63;215982;1269;140376;-75
2024/01/04 21:40:35;;;;;;;5.80;5.00;;;;;;;-0.78;89.19;98555.76;216090;1266;140505;-73
2024/01/04 21:45:39;;;;;;;8.00;5.50;;;;;;;-0.81;89.17;98564.27;216777;1268;140097;-72
2024/01/04 21:50:44;;;;;;;7.40;6.20;;;;;;;-0.81;88.93;98581.77;216267;1265;140315;-73
2024/01/04 21:55:47;;;;;;;6.20;4.70;;;;;;;-0.84;88.30;98595.33;216184;1264;140481;-74
2024/01/04 22:00:50;;;;;;;9.00;4.90;;;;;;;-0.87;88.44;98601.04;216225;1269;139737;-71
2024/01/04 22:05:55;;;;;;;9.60;5.00;;;;;;;-0.93;88.04;98613.12;216594;1264;140296;-70
2024/01/04 22:10:58;;;;;;;6.00;4.50;;;;;;;-1.01;87.97;98617.16;216219;1267;140405;-74
2024/01/04 22:16:01;;;;;;;4.40;3.40;;;;;;;-1.07;87.98;98636.10;216183;1269;140708;-75
2024/01/04 22:21:04;;;;;;;6.00;4.90;;;;;;;-1.12;87.74;98645.70;216079;1264;139819;-69
2024/01/04 22:26:07;;;;;;;9.70;5.20;;;;;;;-1.15;87.88;98658.63;216091;1267;139975;-70
2024/01/04 22:31:10;;;;;;;10.50;6.00;;;;;;;-1.16;87.54;98667.86;215798;1267;276314;-72
2024/01/04 22:36:14;;;;;;;6.60;5.60;;;;;;;-1.18;87.64;98675.60;216319;1264;140451;-76
2024/01/04 22:41:17;;;;;;;6.50;4.80;;;;;;;-1.16;87.72;98684.20;216214;1267;139902;-72
2024/01/04 22:46:26;;;;;;;3.60;3.30;;;;;;;-1.11;87.96;98692.22;217291;1268;139600;-69
2024/01/04 22:51:29;;;;;;;5.20;3.60;;;;;;;-1.13;87.52;98698.43;216171;1270;140044;-72
2024/01/04 22:56:33;;;;;;;5.90;4.80;;;;;;;-1.09;87.48;98708.13;216041;1269;139891;-73
2024/01/04 23:01:36;;;;;;;5.70;3.50;;;;;;;-1.08;87.62;98712.48;216407;1267;139666;-74
2024/01/04 23:06:39;;;;;;;6.00;4.20;;;;;;;-1.09;87.66;98714.73;216350;1264;139811;-73
2024/01/04 23:11:43;;;;;;;8.50;5.80;;;;;;;-1.09;87.50;98721.41;216203;1264;140285;-73
2024/01/04 23:16:47;;;;;;;7.00;6.30;;;;;;;-1.09;87.52;98723.46;216024;1265;139860;-71
2024/01/04 23:21:50;;;;;;;6.60;5.90;;;;;;;-1.07;87.62;98723.73;216671;1268;139830;-77
2024/01/04 23:26:53;;;;;;;5.70;4.60;;;;;;;-1.04;87.82;98735.48;217562;1264;140424;-76